createdAt,value
2024-03-29T00:02:14.695Z,62.27
2024-03-29T00:05:17.308Z,62.22
2024-03-29T00:08:20.064Z,62.33
2024-03-29T00:11:22.739Z,62.65
2024-03-29T00:14:26.750Z,62.53
2024-03-29T00:17:29.526Z,62.71
2024-03-29T00:20:32.606Z,62.67
2024-03-29T00:23:35.310Z,62.71
2024-03-29T00:26:37.950Z,62.87
2024-03-29T00:29:40.840Z,62.85
2024-03-29T00:32:43.453Z,63.06
2024-03-29T00:35:46.175Z,63.19
2024-03-29T00:38:48.917Z,63.22
2024-03-29T00:41:51.600Z,63.44
2024-03-29T00:44:54.163Z,63.48
2024-03-29T00:47:56.861Z,63.47
2024-03-29T00:50:59.632Z,63.72
2024-03-29T00:57:22.645Z,63.71
2024-03-29T01:00:25.409Z,63.62
2024-03-29T01:03:32.342Z,63.50
2024-03-29T01:06:35.114Z,63.17
2024-03-29T01:09:37.765Z,63.29
2024-03-29T01:12:40.508Z,63.28
2024-03-29T01:15:43.210Z,63.18
2024-03-29T01:18:46.704Z,63.18
2024-03-29T01:21:49.822Z,62.99
2024-03-29T01:24:52.512Z,63.04
2024-03-29T01:27:55.154Z,62.74
2024-03-29T01:30:59.578Z,62.67
2024-03-29T01:34:03.840Z,62.38
2024-03-29T01:37:06.657Z,62.19
2024-03-29T01:40:11.353Z,61.87
2024-03-29T01:43:13.955Z,61.87
2024-03-29T01:46:23.678Z,61.72
2024-03-29T01:49:26.980Z,61.67
2024-03-29T01:52:30.693Z,61.63
2024-03-29T01:55:33.374Z,61.31
2024-03-29T01:58:36.787Z,61.58
2024-03-29T02:01:41.781Z,61.40
2024-03-29T02:04:44.619Z,61.34
2024-03-29T02:07:51.838Z,61.65
2024-03-29T02:10:54.852Z,61.95
2024-03-29T02:13:58.326Z,62.22
2024-03-29T02:17:01.081Z,62.53
2024-03-29T02:20:04.003Z,62.72
2024-03-29T02:23:17.321Z,63.05
2024-03-29T02:26:20.367Z,63.26
2024-03-29T02:29:23.137Z,63.42
2024-03-29T02:32:25.856Z,63.44
2024-03-29T02:35:29.796Z,63.62
2024-03-29T02:38:32.457Z,64.05
2024-03-29T02:41:35.108Z,64.11
2024-03-29T02:44:37.847Z,64.16
2024-03-29T02:47:40.471Z,64.07
2024-03-29T02:50:43.117Z,64.09
2024-03-29T02:53:45.824Z,64.52
2024-03-29T02:56:48.524Z,64.74
2024-03-29T02:59:51.142Z,64.66
2024-03-29T03:02:53.793Z,64.91
2024-03-29T03:05:56.528Z,64.63
2024-03-29T03:09:17.935Z,65.13
2024-03-29T03:12:20.595Z,65.20
2024-03-29T03:15:23.271Z,65.10
2024-03-29T03:18:25.954Z,65.25
2024-03-29T03:21:29.787Z,65.41
2024-03-29T03:24:32.444Z,65.44
2024-03-29T03:27:35.230Z,65.47
2024-03-29T03:30:41.958Z,65.41
2024-03-29T03:33:44.480Z,65.44
2024-03-29T03:36:47.156Z,65.74
2024-03-29T03:39:49.738Z,65.68
2024-03-29T03:42:52.483Z,66.18
2024-03-29T03:45:55.138Z,66.07
2024-03-29T03:48:57.720Z,65.96
2024-03-29T03:52:00.361Z,66.12
2024-03-29T03:55:03.541Z,66.27
2024-03-29T03:58:06.201Z,66.13
2024-03-29T04:01:08.877Z,66.22
2024-03-29T04:04:11.512Z,66.17
2024-03-29T04:07:14.431Z,66.20
2024-03-29T04:10:17.064Z,66.56
2024-03-29T04:13:19.795Z,66.57
2024-03-29T04:16:22.662Z,66.68
2024-03-29T04:19:25.387Z,66.98
2024-03-29T04:22:32.037Z,66.97
2024-03-29T04:25:34.717Z,67.28
2024-03-29T04:28:37.871Z,67.33
2024-03-29T04:31:40.652Z,67.57
2024-03-29T04:34:43.342Z,67.79
2024-03-29T04:37:46.006Z,67.88
2024-03-29T04:40:52.947Z,68.10
2024-03-29T04:43:55.555Z,68.22
2024-03-29T04:46:58.281Z,68.44
2024-03-29T04:50:00.905Z,68.92
2024-03-29T04:53:03.681Z,69.28
2024-03-29T04:56:07.004Z,69.69
2024-03-29T04:59:11.421Z,69.45
2024-03-29T05:02:14.067Z,69.13
2024-03-29T05:05:16.737Z,68.93
2024-03-29T05:08:20.917Z,68.46
2024-03-29T05:11:23.531Z,68.10
2024-03-29T05:14:26.265Z,68.11
2024-03-29T05:17:28.873Z,67.62
2024-03-29T05:20:31.885Z,67.20
2024-03-29T05:23:34.475Z,66.77
2024-03-29T05:26:37.297Z,66.24
2024-03-29T05:29:40.019Z,65.58
2024-03-29T05:32:43.488Z,65.65
2024-03-29T05:35:46.982Z,65.56
2024-03-29T05:38:49.834Z,65.01
2024-03-29T05:41:52.497Z,64.44
2024-03-29T05:44:55.199Z,64.08
2024-03-29T05:47:59.524Z,63.53
2024-03-29T05:51:02.157Z,62.76
2024-03-29T05:54:05.010Z,62.48
2024-03-29T05:57:08.088Z,62.51
2024-03-29T06:00:11.608Z,61.96
2024-03-29T06:03:14.339Z,62.19
2024-03-29T06:06:18.938Z,61.97
2024-03-29T06:09:21.557Z,61.14
2024-03-29T06:12:24.216Z,60.45
2024-03-29T06:15:45.583Z,60.30
2024-03-29T06:18:48.159Z,59.86
2024-03-29T06:21:51.250Z,58.32
2024-03-29T06:24:54.745Z,58.72
2024-03-29T06:27:57.403Z,58.48
2024-03-29T06:31:01.573Z,57.41
2024-03-29T06:34:04.245Z,57.18
2024-03-29T06:37:08.648Z,57.08
2024-03-29T06:40:11.591Z,57.45
2024-03-29T06:43:14.756Z,57.01
2024-03-29T06:46:17.490Z,56.34
2024-03-29T06:49:20.093Z,55.87
2024-03-29T06:52:22.779Z,55.67
2024-03-29T06:55:25.440Z,54.76
2024-03-29T06:58:28.595Z,54.28
2024-03-29T07:01:31.327Z,53.96
2024-03-29T07:04:33.984Z,54.57
2024-03-29T07:07:36.666Z,53.57
2024-03-29T07:10:39.701Z,53.76
2024-03-29T07:13:42.344Z,52.68
2024-03-29T07:16:45.736Z,51.90
2024-03-29T07:19:48.454Z,52.02
2024-03-29T07:22:51.167Z,52.13
2024-03-29T07:26:03.911Z,52.46
2024-03-29T07:29:07.530Z,52.21
2024-03-29T07:32:10.268Z,52.68
2024-03-29T07:35:13.795Z,52.32
2024-03-29T07:38:18.094Z,51.90
2024-03-29T07:41:20.698Z,52.16
2024-03-29T07:44:23.763Z,52.20
2024-03-29T07:47:26.930Z,51.78
2024-03-29T07:50:30.163Z,50.11
2024-03-29T07:53:32.985Z,49.67
2024-03-29T07:56:35.648Z,50.28
2024-03-29T07:59:42.216Z,50.20
2024-03-29T08:02:45.033Z,49.74
2024-03-29T08:06:01.085Z,49.34
2024-03-29T08:09:04.004Z,50.06
2024-03-29T08:12:07.056Z,50.21
2024-03-29T08:15:09.907Z,49.98
2024-03-29T08:18:12.484Z,48.64
2024-03-29T08:21:15.639Z,48.49
2024-03-29T08:24:18.395Z,48.21
2024-03-29T08:27:21.071Z,47.05
2024-03-29T08:30:23.761Z,46.75
2024-03-29T08:33:26.907Z,46.86
2024-03-29T08:36:30.558Z,46.55
2024-03-29T08:39:33.779Z,46.25
2024-03-29T08:42:38.396Z,46.85
2024-03-29T08:45:41.688Z,47.45
2024-03-29T08:48:45.093Z,47.55
2024-03-29T08:51:47.756Z,48.10
2024-03-29T08:54:50.359Z,48.22
2024-03-29T08:57:52.933Z,48.11
2024-03-29T09:00:56.992Z,47.20
2024-03-29T09:03:59.632Z,47.22
2024-03-29T09:07:03.756Z,47.29
2024-03-29T09:10:06.842Z,47.14
2024-03-29T09:13:10.484Z,47.13
2024-03-29T09:16:13.312Z,46.86
2024-03-29T09:19:16.014Z,46.63
2024-03-29T09:22:28.266Z,46.66
2024-03-29T09:25:41.851Z,45.75
2024-03-29T09:28:44.569Z,45.53
2024-03-29T09:31:47.817Z,44.79
2024-03-29T09:34:50.556Z,43.61
2024-03-29T09:37:53.248Z,43.49
2024-03-29T09:41:14.461Z,42.98
2024-03-29T09:44:18.611Z,44.09
2024-03-29T09:47:22.595Z,44.20
2024-03-29T09:50:25.425Z,44.01
2024-03-29T09:53:28.223Z,43.47
2024-03-29T09:56:31.038Z,43.64
2024-03-29T09:59:35.902Z,44.33
2024-03-29T10:02:40.805Z,44.08
2024-03-29T10:05:43.716Z,43.18
2024-03-29T10:08:47.176Z,43.89
2024-03-29T10:11:49.939Z,43.18
2024-03-29T10:15:31.339Z,41.75
2024-03-29T10:18:33.935Z,41.91
2024-03-29T10:21:37.734Z,42.13
2024-03-29T10:24:40.663Z,41.68
2024-03-29T10:27:43.480Z,41.59
2024-03-29T10:30:46.251Z,41.49
2024-03-29T10:33:49.727Z,41.64
2024-03-29T10:36:52.591Z,42.32
2024-03-29T10:39:55.368Z,42.97
2024-03-29T10:42:59.276Z,42.42
2024-03-29T10:46:02.498Z,42.67
2024-03-29T10:49:07.393Z,42.40
2024-03-29T10:52:14.759Z,42.69
2024-03-29T10:55:18.516Z,43.26
2024-03-29T10:58:25.676Z,43.06
2024-03-29T11:01:30.790Z,43.31
2024-03-29T11:04:38.781Z,43.51
2024-03-29T11:07:43.877Z,43.88
2024-03-29T11:10:50.979Z,41.88
2024-03-29T11:14:28.111Z,42.02
2024-03-29T11:17:31.728Z,42.85
2024-03-29T11:20:37.965Z,40.70
2024-03-29T11:23:40.766Z,39.59
2024-03-29T11:26:43.736Z,39.80
2024-03-29T11:29:48.506Z,40.14
2024-03-29T11:32:56.526Z,40.67
2024-03-29T11:36:00.306Z,40.18
2024-03-29T11:39:03.264Z,39.04
2024-03-29T11:42:08.415Z,39.71
2024-03-29T11:45:13.327Z,40.16
2024-03-29T11:48:16.565Z,40.10
2024-03-29T11:51:22.923Z,39.76
2024-03-29T11:54:26.433Z,40.68
2024-03-29T11:57:32.027Z,41.21
2024-03-29T12:00:34.898Z,41.25
2024-03-29T12:03:41.786Z,41.32
2024-03-29T12:06:46.079Z,41.69
2024-03-29T12:09:49.166Z,40.85
2024-03-29T12:12:51.775Z,40.37
2024-03-29T12:15:55.192Z,40.72
2024-03-29T12:18:57.786Z,40.80
2024-03-29T12:22:00.723Z,40.87
2024-03-29T12:25:03.799Z,39.94
2024-03-29T12:28:07.310Z,38.93
2024-03-29T12:31:10.678Z,38.46
2024-03-29T12:34:23.167Z,37.80
2024-03-29T12:37:29.634Z,38.94
2024-03-29T12:40:41.060Z,38.82
2024-03-29T12:43:44.310Z,39.48
2024-03-29T12:46:46.985Z,39.84
2024-03-29T12:49:49.672Z,38.61
2024-03-29T12:52:55.321Z,39.11
2024-03-29T12:55:58.050Z,39.05
2024-03-29T12:59:00.668Z,37.92
2024-03-29T13:02:05.018Z,38.64
2024-03-29T13:05:07.908Z,38.26
2024-03-29T13:08:12.851Z,38.15
2024-03-29T13:11:15.446Z,38.84
2024-03-29T13:14:18.233Z,39.45
2024-03-29T13:17:20.892Z,39.52
2024-03-29T13:20:24.874Z,39.33
2024-03-29T13:23:27.593Z,39.37
2024-03-29T13:26:32.005Z,39.57
2024-03-29T13:29:34.652Z,40.32
2024-03-29T13:32:38.882Z,40.64
2024-03-29T13:35:43.425Z,40.36
2024-03-29T13:38:55.463Z,40.66
2024-03-29T13:42:01.832Z,40.57
2024-03-29T13:45:11.045Z,40.11
2024-03-29T13:48:14.995Z,39.83
2024-03-29T13:51:17.633Z,40.19
2024-03-29T13:54:20.224Z,40.14
2024-03-29T13:57:23.336Z,39.37
2024-03-29T14:00:26.048Z,39.23
2024-03-29T14:03:28.727Z,39.72
2024-03-29T14:06:31.574Z,40.23
2024-03-29T14:09:35.961Z,40.83
2024-03-29T14:12:38.591Z,40.66
2024-03-29T14:15:41.341Z,40.51
2024-03-29T14:18:43.956Z,40.25
2024-03-29T14:21:46.648Z,39.39
2024-03-29T14:24:49.291Z,39.02
2024-03-29T14:28:00.412Z,39.15
2024-03-29T14:31:03.133Z,39.49
2024-03-29T14:34:05.843Z,39.79
2024-03-29T14:37:10.015Z,40.40
2024-03-29T14:40:13.453Z,40.56
2024-03-29T14:43:16.159Z,40.42
2024-03-29T14:46:18.772Z,40.49
2024-03-29T14:49:21.638Z,40.58
2024-03-29T14:52:24.244Z,40.75
2024-03-29T14:55:27.610Z,40.98
2024-03-29T14:58:30.312Z,41.22
2024-03-29T15:01:33.801Z,41.18
2024-03-29T15:04:37.996Z,41.47
2024-03-29T15:07:46.671Z,41.39
2024-03-29T15:11:00.686Z,41.90
2024-03-29T15:14:04.690Z,42.13
2024-03-29T15:17:08.035Z,41.92
2024-03-29T15:20:12.429Z,41.96
2024-03-29T15:23:16.745Z,42.15
2024-03-29T15:26:20.685Z,41.79
2024-03-29T15:29:23.444Z,41.83
2024-03-29T15:32:30.440Z,41.91
2024-03-29T15:35:33.215Z,42.03
2024-03-29T15:38:36.297Z,42.11
2024-03-29T15:41:44.724Z,42.31
2024-03-29T15:44:47.407Z,42.42
2024-03-29T15:47:50.054Z,42.30
2024-03-29T15:50:52.741Z,42.18
2024-03-29T15:53:57.298Z,42.11
2024-03-29T15:57:01.080Z,42.06
2024-03-29T16:00:05.372Z,41.78
2024-03-29T16:03:15.557Z,41.83
2024-03-29T16:06:19.618Z,41.85
2024-03-29T16:09:22.291Z,41.74
2024-03-29T16:12:24.876Z,42.22
2024-03-29T16:15:27.867Z,42.22
2024-03-29T16:18:34.955Z,42.41
2024-03-29T16:21:37.571Z,42.26
2024-03-29T16:24:40.271Z,42.10
2024-03-29T16:27:43.097Z,42.16
2024-03-29T16:30:46.522Z,42.21
2024-03-29T16:33:49.171Z,42.19
2024-03-29T16:36:51.815Z,42.29
2024-03-29T16:39:54.423Z,42.42
2024-03-29T16:42:58.467Z,42.64
2024-03-29T16:46:01.225Z,42.65
2024-03-29T16:49:04.923Z,43.07
2024-03-29T16:52:07.525Z,43.17
2024-03-29T16:55:11.165Z,43.11
2024-03-29T16:58:13.797Z,43.29
2024-03-29T17:01:16.598Z,43.26
2024-03-29T17:04:19.328Z,43.64
2024-03-29T17:07:22.108Z,43.84
2024-03-29T17:10:24.737Z,43.97
2024-03-29T17:13:27.310Z,44.36
2024-03-29T17:16:29.974Z,44.40
2024-03-29T17:19:37.501Z,44.49
2024-03-29T17:22:40.078Z,44.49
2024-03-29T17:25:42.677Z,44.93
2024-03-29T17:28:46.056Z,45.08
2024-03-29T17:32:01.293Z,45.07
2024-03-29T17:35:11.262Z,45.15
2024-03-29T17:38:13.874Z,45.18
2024-03-29T17:41:16.555Z,45.29
2024-03-29T17:44:19.267Z,45.51
2024-03-29T17:47:21.868Z,45.68
2024-03-29T17:50:24.468Z,45.89
2024-03-29T17:53:27.234Z,46.29
2024-03-29T17:56:30.063Z,46.54
2024-03-29T17:59:32.703Z,46.64
2024-03-29T18:02:36.487Z,46.85
2024-03-29T18:05:39.150Z,46.77
2024-03-29T18:08:42.752Z,47.20
2024-03-29T18:11:45.444Z,47.50
2024-03-29T18:14:48.679Z,47.47
2024-03-29T18:17:51.403Z,47.66
2024-03-29T18:20:54.013Z,47.47
2024-03-29T18:23:56.626Z,47.66
2024-03-29T18:26:59.332Z,47.76
2024-03-29T18:30:02.047Z,47.74
2024-03-29T18:33:04.702Z,47.82
2024-03-29T18:36:07.673Z,47.78
2024-03-29T18:39:10.264Z,47.85
2024-03-29T18:42:13.193Z,47.63
2024-03-29T18:45:22.103Z,47.84
2024-03-29T18:48:24.838Z,47.92
2024-03-29T18:51:27.499Z,48.25
2024-03-29T18:54:33.294Z,48.38
2024-03-29T18:57:37.912Z,48.51
2024-03-29T19:00:40.521Z,48.40
2024-03-29T19:04:03.238Z,48.52
2024-03-29T19:07:19.791Z,48.78
2024-03-29T19:10:22.459Z,48.79
2024-03-29T19:13:25.150Z,48.80
2024-03-29T19:16:27.767Z,48.84
2024-03-29T19:19:32.051Z,48.78
2024-03-29T19:22:35.110Z,48.83
2024-03-29T19:25:37.750Z,48.94
2024-03-29T19:28:40.451Z,49.09
2024-03-29T19:31:46.466Z,49.00
2024-03-29T19:34:49.377Z,49.12
2024-03-29T19:37:52.334Z,48.94
2024-03-29T19:40:55.046Z,48.83
2024-03-29T19:43:58.193Z,48.73
2024-03-29T19:47:00.778Z,48.84
2024-03-29T19:50:04.873Z,48.82
2024-03-29T19:53:07.491Z,48.96
2024-03-29T19:56:12.295Z,48.87
2024-03-29T19:59:15.059Z,49.34
2024-03-29T20:02:18.249Z,49.33
2024-03-29T20:05:21.060Z,49.54
2024-03-29T20:08:23.822Z,49.56
2024-03-29T20:11:26.479Z,49.81
2024-03-29T20:14:30.932Z,49.89
2024-03-29T20:17:33.569Z,50.04
2024-03-29T20:20:37.544Z,50.05
2024-03-29T20:23:40.172Z,50.17
2024-03-29T20:26:42.889Z,50.55
2024-03-29T20:29:45.460Z,50.76
2024-03-29T20:32:49.109Z,51.08
2024-03-29T20:35:51.782Z,51.26
2024-03-29T20:38:58.851Z,51.44
2024-03-29T20:42:01.522Z,51.70
2024-03-29T20:45:07.758Z,51.86
2024-03-29T20:48:10.412Z,52.04
2024-03-29T20:51:13.099Z,52.19
2024-03-29T20:54:16.463Z,52.56
2024-03-29T20:57:19.089Z,52.79
2024-03-29T21:00:21.876Z,52.85
2024-03-29T21:03:44.969Z,53.04
2024-03-29T21:06:47.607Z,53.25
2024-03-29T21:09:50.357Z,53.56
2024-03-29T21:12:58.918Z,53.63
2024-03-29T21:16:01.648Z,53.81
2024-03-29T21:19:08.389Z,54.08
2024-03-29T21:22:11.053Z,54.29
2024-03-29T21:25:14.957Z,54.50
2024-03-29T21:28:17.652Z,54.95
2024-03-29T21:31:20.231Z,55.33
2024-03-29T21:34:22.928Z,55.53
2024-03-29T21:37:25.493Z,55.84
2024-03-29T21:40:28.211Z,56.09
2024-03-29T21:43:30.824Z,56.52
2024-03-29T21:46:36.257Z,56.40
2024-03-29T21:49:39.336Z,56.56
2024-03-29T21:52:42.042Z,56.81
2024-03-29T21:55:44.641Z,56.95
2024-03-29T21:58:54.842Z,57.03
2024-03-29T22:01:58.064Z,56.93
2024-03-29T22:05:00.694Z,56.98
2024-03-29T22:08:03.496Z,57.05
2024-03-29T22:11:06.338Z,57.16
2024-03-29T22:14:09.653Z,57.01
2024-03-29T22:17:12.330Z,57.18
2024-03-29T22:20:16.194Z,56.99
2024-03-29T22:23:19.045Z,57.03
2024-03-29T22:26:21.741Z,57.19
2024-03-29T22:29:24.386Z,57.57
2024-03-29T22:32:26.996Z,57.40
2024-03-29T22:35:29.609Z,57.48
2024-03-29T22:38:32.215Z,57.59
2024-03-29T22:41:34.880Z,57.59
2024-03-29T22:44:37.446Z,57.79
2024-03-29T22:47:40.123Z,58.03
2024-03-29T22:50:42.804Z,58.05
2024-03-29T22:53:45.584Z,58.21
2024-03-29T22:56:48.318Z,58.40
2024-03-29T22:59:50.915Z,58.62
2024-03-29T23:02:53.541Z,58.68
2024-03-29T23:05:56.256Z,58.99
2024-03-29T23:08:58.860Z,59.03
2024-03-29T23:12:01.503Z,59.24
2024-03-29T23:15:04.374Z,59.51
2024-03-29T23:18:07.180Z,59.46
2024-03-29T23:21:09.803Z,59.51
2024-03-29T23:24:13.923Z,59.71
2024-03-29T23:27:16.548Z,59.84
2024-03-29T23:30:19.287Z,59.99
2024-03-29T23:33:22.061Z,59.95
2024-03-29T23:36:25.974Z,60.15
2024-03-29T23:39:29.525Z,60.16
2024-03-29T23:42:33.271Z,60.32
2024-03-29T23:45:35.880Z,60.40
2024-03-29T23:48:38.671Z,60.40
2024-03-29T23:51:43.000Z,60.58
2024-03-29T23:55:06.442Z,60.73
2024-03-29T23:58:09.308Z,60.72
